Time;durP1;ratioP1;P1;durP2;ratioP2;P2;SDS_P1;SDS_P2;PMS_P1;PMS_P2;Temp;Humidity;BMP_temperature;BMP_pressure;BME280_temperature;BME280_humidity;BME280_pressure;Samples;Min_cycle;Max_cycle;Signal;HPM_P1;HPM_P2
2021/05/18 00:00:53;;;;;;;1.52;1.10;;;;;;;20.61;37.70;100922.59;4143589;28;20034;-51
2021/05/18 00:02:54;;;;;;;3.00;0.90;;;;;;;20.53;37.68;100918.44;4141396;28;20033;-47
2021/05/18 00:04:54;;;;;;;1.02;0.93;;;;;;;20.51;37.92;100929.00;4142423;28;20464;-53
2021/05/18 00:06:54;;;;;;;2.03;1.00;;;;;;;20.52;37.94;100922.34;4142974;28;20041;-54
2021/05/18 00:13:35;;;;;;;3.85;1.65;;;;;;;20.47;37.91;100919.59;4140278;28;20045;-52
2021/05/18 00:15:36;;;;;;;3.40;0.95;;;;;;;20.45;37.43;100917.09;4153336;28;20828;-53
2021/05/18 00:17:37;;;;;;;1.52;1.10;;;;;;;20.38;37.54;100922.13;4141381;28;20129;-51
2021/05/18 00:19:38;;;;;;;2.83;1.40;;;;;;;20.41;37.88;100916.00;4144568;28;20030;-52
2021/05/18 00:21:39;;;;;;;1.35;1.00;;;;;;;20.35;37.96;100919.94;4142922;28;20052;-53
2021/05/18 00:23:39;;;;;;;2.40;1.10;;;;;;;20.41;37.65;100917.97;4140109;28;20045;-51
2021/05/18 00:25:41;;;;;;;2.05;1.10;;;;;;;20.44;37.52;100920.16;4138560;28;20097;-51
2021/05/18 00:27:41;;;;;;;2.42;0.93;;;;;;;20.39;37.65;100917.41;4140783;28;20042;-53
2021/05/18 00:29:42;;;;;;;6.35;1.20;;;;;;;20.40;37.75;100919.88;4142546;28;20087;-55
2021/05/18 00:31:42;;;;;;;2.80;1.35;;;;;;;20.40;37.65;100919.06;4139306;28;20769;-53
2021/05/18 00:33:43;;;;;;;2.08;1.25;;;;;;;20.36;37.81;100924.38;4143833;28;20029;-53
2021/05/18 00:35:45;;;;;;;2.95;1.10;;;;;;;20.27;37.71;100917.78;4140079;28;20041;-54
2021/05/18 00:37:45;;;;;;;3.83;1.10;;;;;;;20.24;37.78;100921.94;4137695;28;20034;-51
2021/05/18 00:39:46;;;;;;;3.50;1.25;;;;;;;20.25;37.65;100926.41;4141859;28;20109;-55
2021/05/18 00:41:47;;;;;;;3.05;1.02;;;;;;;20.27;37.66;100921.38;4142483;28;20040;-53
2021/05/18 00:43:48;;;;;;;1.33;0.93;;;;;;;20.26;37.65;100919.69;4139136;28;20033;-53
2021/05/18 00:45:49;;;;;;;0.73;0.60;;;;;;;20.28;37.83;100917.47;4140695;28;20026;-55
2021/05/18 00:47:50;;;;;;;3.22;1.17;;;;;;;20.28;37.29;100928.59;4133814;28;20033;-52
2021/05/18 00:49:50;;;;;;;1.45;0.90;;;;;;;20.18;37.66;100931.44;4141398;28;20507;-49
2021/05/18 00:51:50;;;;;;;1.45;0.90;;;;;;;20.19;37.52;100919.19;4138185;28;20029;-51
2021/05/18 00:53:55;;;;;;;2.78;1.10;;;;;;;20.15;37.55;100931.19;4138590;28;20559;-50
2021/05/18 00:56:01;;;;;;;2.92;1.35;;;;;;;20.19;37.58;100929.47;4137228;28;20069;-50
2021/05/18 01:00:20;;;;;;;2.58;1.20;;;;;;;20.17;37.47;100926.16;4139720;28;20041;-50
2021/05/18 01:02:22;;;;;;;2.90;1.00;;;;;;;20.13;37.55;100923.94;4139391;28;20688;-49
2021/05/18 01:04:23;;;;;;;1.50;1.08;;;;;;;20.10;37.83;100934.81;4141504;28;20488;-51
2021/05/18 01:06:28;;;;;;;1.95;1.20;;;;;;;20.07;37.42;100929.81;4141052;28;20160;-50
2021/05/18 01:08:29;;;;;;;1.67;1.25;;;;;;;20.04;37.79;100930.41;4132411;28;20126;-53
2021/05/18 01:10:29;;;;;;;1.80;0.90;;;;;;;19.98;37.76;100923.19;4140540;28;20057;-52
2021/05/18 01:12:30;;;;;;;3.80;1.23;;;;;;;20.05;37.38;100929.25;4146505;28;20030;-51
2021/05/18 01:14:31;;;;;;;1.10;1.00;;;;;;;20.06;37.63;100930.94;4135882;28;20038;-50
2021/05/18 01:16:35;;;;;;;4.20;0.95;;;;;;;20.06;37.39;100930.94;4140435;28;20083;-58
2021/05/18 01:18:44;;;;;;;2.10;0.98;;;;;;;20.04;37.54;100927.63;4137399;28;20038;-54
2021/05/18 01:20:58;;;;;;;1.05;0.98;;;;;;;20.03;37.50;100928.72;4145133;28;20061;-52
2021/05/18 01:22:59;;;;;;;2.35;1.30;;;;;;;19.95;37.53;100924.59;4143351;28;20496;-52
2021/05/18 01:24:59;;;;;;;1.13;1.02;;;;;;;20.00;37.67;100927.34;4139042;28;20034;-50
2021/05/18 01:27:00;;;;;;;1.55;1.00;;;;;;;19.99;37.30;100930.41;4140135;28;20030;-50
2021/05/18 01:29:01;;;;;;;3.38;1.08;;;;;;;19.91;37.54;100916.00;4140191;28;20037;-49
2021/05/18 01:31:04;;;;;;;3.95;0.80;;;;;;;19.97;37.39;100925.13;4135848;28;20756;-52
2021/05/18 01:33:05;;;;;;;1.33;1.00;;;;;;;19.87;37.65;100922.41;4140166;28;20662;-51
2021/05/18 01:35:07;;;;;;;3.40;0.95;;;;;;;19.88;37.35;100924.91;4143333;28;20060;-50
2021/05/18 01:37:07;;;;;;;3.63;1.25;;;;;;;19.91;37.51;100929.03;4138761;28;20688;-52
2021/05/18 01:40:07;;;;;;;2.90;0.80;;;;;;;19.81;37.74;100923.53;4143417;28;20084;-52
2021/05/18 01:43:54;;;;;;;1.05;0.90;;;;;;;19.76;37.61;100933.53;4140904;28;20809;-51
2021/05/18 01:45:54;;;;;;;1.35;0.80;;;;;;;19.81;37.43;100934.63;4140241;28;20030;-53
2021/05/18 01:48:00;;;;;;;1.20;1.00;;;;;;;19.77;37.58;100937.13;4139377;28;20069;-54
2021/05/18 01:50:01;;;;;;;1.55;1.00;;;;;;;19.75;37.72;100928.25;4141692;28;20169;-51
2021/05/18 01:52:03;;;;;;;2.20;1.30;;;;;;;19.74;37.64;100932.97;4141548;28;20065;-54
2021/05/18 01:54:07;;;;;;;1.80;0.98;;;;;;;19.78;37.51;100936.00;4139862;28;20554;-55
2021/05/18 01:58:11;;;;;;;2.22;1.17;;;;;;;19.75;37.63;100928.25;4142030;28;20045;-53
2021/05/18 02:00:15;;;;;;;1.90;1.10;;;;;;;19.60;37.45;100910.53;4142283;28;20403;-53
2021/05/18 02:02:16;;;;;;;1.13;0.90;;;;;;;19.69;37.57;100940.50;4142920;28;20037;-50
2021/05/18 02:04:31;;;;;;;1.92;1.25;;;;;;;19.62;37.72;100931.63;4144315;28;20034;-52
2021/05/18 02:06:33;;;;;;;1.48;1.02;;;;;;;19.71;37.28;100929.91;4143406;28;20029;-54
2021/05/18 02:08:34;;;;;;;1.88;0.90;;;;;;;19.67;37.57;100929.66;4137264;28;20030;-54
2021/05/18 02:10:34;;;;;;;1.52;0.93;;;;;;;19.57;37.54;100932.47;4139503;28;20415;-52
2021/05/18 02:12:35;;;;;;;1.80;1.20;;;;;;;19.64;37.48;100938.56;4135102;28;20061;-49
2021/05/18 02:14:36;;;;;;;1.80;1.02;;;;;;;19.52;37.87;100941.63;4137090;28;20108;-50
2021/05/18 02:16:39;;;;;;;2.13;1.10;;;;;;;19.55;37.80;100943.84;4141777;28;20034;-47
2021/05/18 02:19:03;;;;;;;1.50;0.98;;;;;;;19.56;37.47;100948.28;4140793;28;20082;-52
2021/05/18 02:25:30;;;;;;;1.92;0.95;;;;;;;19.55;37.67;100940.25;4137667;28;20045;-50
2021/05/18 02:27:31;;;;;;;2.47;1.30;;;;;;;19.54;37.46;100947.75;4141521;28;20030;-53
2021/05/18 02:29:32;;;;;;;2.03;0.85;;;;;;;19.55;37.47;100954.94;4143900;28;20037;-51
2021/05/18 02:31:33;;;;;;;2.15;1.00;;;;;;;19.46;37.58;100953.84;4139286;28;20018;-54
2021/05/18 02:33:34;;;;;;;2.78;1.40;;;;;;;19.50;37.41;100940.28;4142232;28;20029;-49
2021/05/18 02:35:35;;;;;;;1.42;1.10;;;;;;;19.54;37.54;100958.00;4139137;28;20530;-51
2021/05/18 02:37:39;;;;;;;1.30;1.20;;;;;;;19.46;37.63;100956.63;4140445;28;20038;-53
2021/05/18 02:39:39;;;;;;;2.13;0.90;;;;;;;19.50;37.52;100957.75;4145886;28;20092;-52
2021/05/18 02:41:40;;;;;;;1.85;0.82;;;;;;;19.49;37.67;100956.06;4143757;28;20034;-54
2021/05/18 02:43:52;;;;;;;1.33;1.00;;;;;;;19.46;37.72;100953.84;4141826;28;20329;-48
2021/05/18 02:50:15;;;;;;;1.30;0.82;;;;;;;19.42;37.60;100963.88;4136259;28;20099;-53
2021/05/18 02:52:15;;;;;;;1.13;0.80;;;;;;;19.41;37.54;100956.66;4137522;28;20117;-53
2021/05/18 02:54:24;;;;;;;2.47;1.00;;;;;;;19.32;37.83;100959.16;4139755;28;20041;-50
2021/05/18 02:58:26;;;;;;;2.15;1.02;;;;;;;19.34;37.53;100956.94;4137145;28;20064;-53
2021/05/18 03:00:27;;;;;;;1.65;0.90;;;;;;;19.33;37.66;100958.06;4141934;28;20244;-51
2021/05/18 03:02:27;;;;;;;1.98;1.00;;;;;;;19.38;37.48;100957.22;4145219;28;20911;-54
2021/05/18 03:04:29;;;;;;;1.95;1.13;;;;;;;19.42;37.49;100963.88;4140962;28;20029;-52
2021/05/18 03:06:30;;;;;;;1.27;1.10;;;;;;;19.33;37.56;100954.47;4146174;28;20037;-53
2021/05/18 03:08:36;;;;;;;3.83;0.90;;;;;;;19.31;37.57;100967.75;4133840;28;20040;-54
2021/05/18 03:10:37;;;;;;;3.08;1.40;;;;;;;19.34;37.50;100964.44;4141842;28;20026;-52
2021/05/18 03:12:37;;;;;;;1.38;1.27;;;;;;;19.30;37.57;100963.34;4137674;28;20542;-53
2021/05/18 03:14:37;;;;;;;2.10;1.13;;;;;;;19.27;37.60;100963.91;4138688;28;20430;-50
2021/05/18 03:16:39;;;;;;;1.70;1.10;;;;;;;19.24;37.62;100968.88;4141306;28;21812;-52
2021/05/18 03:18:39;;;;;;;2.05;1.00;;;;;;;19.20;37.68;100969.72;4142852;28;20022;-48
2021/05/18 03:20:40;;;;;;;2.30;1.40;;;;;;;19.22;37.82;100965.56;4139465;28;20053;-53
2021/05/18 03:22:41;;;;;;;1.52;1.10;;;;;;;19.29;37.68;100967.22;4139157;28;20069;-54
2021/05/18 03:24:42;;;;;;;2.03;1.05;;;;;;;19.20;37.73;100966.94;4140496;28;20029;-55
2021/05/18 03:26:46;;;;;;;1.90;1.05;;;;;;;19.22;37.63;100970.28;4141599;28;20069;-52
2021/05/18 03:28:53;;;;;;;1.40;0.95;;;;;;;19.20;37.51;100966.94;4131223;28;20041;-52
2021/05/18 03:31:09;;;;;;;2.85;1.35;;;;;;;19.30;37.55;100974.44;4138889;28;20058;-51
2021/05/18 03:35:29;;;;;;;1.67;1.30;;;;;;;19.20;37.44;100965.00;4140882;28;20080;-54
2021/05/18 03:39:30;;;;;;;1.70;1.10;;;;;;;19.15;37.60;100967.78;4137735;28;20034;-50
2021/05/18 03:41:41;;;;;;;2.60;1.00;;;;;;;19.13;37.59;100970.00;4139092;28;20041;-52
2021/05/18 03:45:52;;;;;;;2.78;1.17;;;;;;;19.11;37.48;100963.06;4139142;28;20468;-48
2021/05/18 03:52:33;;;;;;;2.80;1.20;;;;;;;19.16;37.42;100972.22;4139498;28;20056;-53
2021/05/18 03:54:52;;;;;;;1.80;1.27;;;;;;;19.06;37.59;100969.41;4141075;28;20038;-49
2021/05/18 04:03:52;;;;;;;2.72;0.88;;;;;;;19.09;37.35;100971.66;4140345;28;20036;-54
2021/05/18 04:10:28;;;;;;;2.37;1.20;;;;;;;19.09;37.42;100977.19;4142481;28;20139;-53
2021/05/18 04:12:41;;;;;;;1.75;1.00;;;;;;;19.06;37.58;100974.94;4135947;28;20484;-51
2021/05/18 04:17:02;;;;;;;1.85;1.40;;;;;;;19.08;37.45;100989.41;4143054;28;20555;-51
2021/05/18 04:19:08;;;;;;;2.95;1.13;;;;;;;19.05;37.66;100985.22;4138343;28;20030;-54
2021/05/18 04:21:34;;;;;;;1.38;0.90;;;;;;;18.97;37.55;100991.34;4131787;28;20061;-53
2021/05/18 04:23:49;;;;;;;1.10;0.90;;;;;;;18.95;37.64;100990.75;4137965;28;20045;-53
2021/05/18 04:40:33;;;;;;;2.03;1.23;;;;;;;18.93;37.30;101006.03;4133751;28;20168;-51
2021/05/18 04:51:31;;;;;;;1.02;1.00;;;;;;;18.97;37.05;101019.06;4138500;28;20476;-53
2021/05/18 04:54:50;;;;;;;1.15;0.93;;;;;;;18.88;37.39;101013.22;4142047;28;20475;-54
2021/05/18 05:00:45;;;;;;;2.40;1.27;;;;;;;18.85;37.47;101024.88;4140221;28;20049;-54
2021/05/18 05:03:38;;;;;;;1.17;1.05;;;;;;;18.86;37.52;101023.78;4140828;28;20034;-50
2021/05/18 05:07:40;;;;;;;1.58;0.93;;;;;;;18.88;37.27;101029.88;4138262;28;20036;-55
2021/05/18 05:09:45;;;;;;;2.70;1.10;;;;;;;18.77;37.53;101021.78;4140330;28;20045;-52
2021/05/18 05:16:07;;;;;;;2.33;0.90;;;;;;;18.82;37.56;101022.66;4140484;28;20428;-50
2021/05/18 05:18:12;;;;;;;2.45;1.40;;;;;;;18.73;37.52;101021.53;4136353;28;20038;-52
2021/05/18 05:20:12;;;;;;;3.58;1.10;;;;;;;18.80;37.48;101027.66;4149340;28;20021;-54
2021/05/18 05:22:13;;;;;;;1.95;0.90;;;;;;;18.75;37.57;101024.84;4145814;28;20026;-54
2021/05/18 05:24:14;;;;;;;1.05;0.95;;;;;;;18.81;37.54;101032.06;4136862;28;20104;-53
2021/05/18 05:26:15;;;;;;;1.45;1.00;;;;;;;18.77;37.41;101021.78;4140832;28;20025;-55
2021/05/18 05:28:15;;;;;;;2.45;1.10;;;;;;;18.73;37.49;101029.84;4136713;28;20041;-56
2021/05/18 05:30:16;;;;;;;2.10;1.08;;;;;;;18.82;37.21;101030.97;4141187;28;20388;-49
2021/05/18 05:32:16;;;;;;;1.10;0.90;;;;;;;18.86;37.43;101029.31;4137869;28;20440;-49
2021/05/18 05:34:18;;;;;;;2.00;1.10;;;;;;;18.86;37.20;101031.25;4138154;28;20034;-52
2021/05/18 05:36:19;;;;;;;0.98;0.80;;;;;;;18.79;37.33;101033.47;4141205;28;20044;-53
2021/05/18 05:38:22;;;;;;;1.58;0.82;;;;;;;18.81;37.13;101034.84;4135800;28;20054;-52
2021/05/18 05:40:22;;;;;;;1.38;1.02;;;;;;;18.73;37.39;101037.34;4136845;28;20034;-49
2021/05/18 05:42:23;;;;;;;1.20;0.93;;;;;;;18.67;37.55;101040.06;4148300;28;20143;-52
2021/05/18 05:44:24;;;;;;;1.10;0.82;;;;;;;18.79;37.19;101041.78;4140069;28;20038;-51
2021/05/18 05:46:25;;;;;;;1.48;0.93;;;;;;;18.75;37.46;101052.56;4141532;28;20034;-52
2021/05/18 05:48:25;;;;;;;2.58;0.73;;;;;;;18.75;37.46;101049.81;4144257;28;20034;-51
2021/05/18 05:50:26;;;;;;;1.63;0.95;;;;;;;18.77;37.37;101043.97;4140269;28;20129;-53
2021/05/18 05:52:26;;;;;;;1.42;0.73;;;;;;;18.70;37.46;101055.34;4143233;28;20464;-53
2021/05/18 05:54:26;;;;;;;1.85;0.80;;;;;;;18.73;37.28;101056.75;4143145;28;20038;-53
2021/05/18 05:56:28;;;;;;;1.10;0.90;;;;;;;18.68;37.21;101063.09;4143058;28;20100;-53
2021/05/18 05:58:29;;;;;;;1.80;1.10;;;;;;;18.68;37.57;101063.09;4147300;28;20495;-49
2021/05/18 06:00:29;;;;;;;1.83;1.25;;;;;;;18.77;37.27;101068.94;4137314;28;20063;-52
2021/05/18 06:02:29;;;;;;;1.83;1.10;;;;;;;18.84;36.95;101066.75;4138951;28;20045;-51
2021/05/18 06:04:31;;;;;;;1.80;0.80;;;;;;;18.73;37.20;101053.97;4139664;28;20135;-50
2021/05/18 06:06:31;;;;;;;2.33;1.00;;;;;;;18.70;37.46;101070.03;4139095;28;20494;-55
2021/05/18 06:08:37;;;;;;;2.85;1.20;;;;;;;18.75;37.04;101082.25;4141030;28;20038;-53
2021/05/18 06:10:41;;;;;;;1.85;0.82;;;;;;;18.71;37.16;101079.19;4138656;28;20042;-51
2021/05/18 06:12:53;;;;;;;1.67;1.00;;;;;;;18.66;37.48;101070.84;4142084;28;20042;-55
2021/05/18 06:37:50;;;;;;;2.88;0.90;;;;;;;18.77;36.97;101100.28;4130748;28;20125;-56
2021/05/18 06:47:12;;;;;;;1.10;1.00;;;;;;;18.68;37.22;101115.78;4115999;28;20122;-52
2021/05/18 06:49:12;;;;;;;1.35;0.77;;;;;;;18.67;37.22;101112.16;4112271;28;20532;-54
2021/05/18 06:51:13;;;;;;;1.35;0.70;;;;;;;18.77;37.10;101116.94;4137888;28;20069;-55
2021/05/18 06:53:13;;;;;;;2.45;0.80;;;;;;;18.73;36.90;101110.25;4144240;28;20025;-51
2021/05/18 06:55:17;;;;;;;0.82;0.63;;;;;;;18.67;37.16;101116.88;4136002;28;20107;-55
2021/05/18 06:57:18;;;;;;;1.88;0.80;;;;;;;18.64;37.03;101117.44;4142344;28;20575;-52
2021/05/18 07:01:19;;;;;;;3.80;1.17;;;;;;;18.70;37.20;101125.47;4136092;28;20046;-54
2021/05/18 07:03:22;;;;;;;2.00;1.10;;;;;;;18.72;37.20;101122.44;4135446;28;20026;-55
2021/05/18 07:07:28;;;;;;;1.38;1.05;;;;;;;18.81;37.16;101122.75;4140911;28;20901;-54
2021/05/18 07:09:28;;;;;;;1.13;0.90;;;;;;;18.80;37.05;101130.25;4141351;28;20034;-54
2021/05/18 07:11:29;;;;;;;4.15;0.90;;;;;;;18.78;36.91;101129.69;4140054;28;20022;-54
2021/05/18 07:13:30;;;;;;;1.38;0.88;;;;;;;18.82;37.03;101136.34;4135819;28;20022;-55
2021/05/18 07:15:30;;;;;;;0.95;0.85;;;;;;;18.83;37.07;101137.19;4135690;28;20459;-56
2021/05/18 07:17:31;;;;;;;3.53;1.17;;;;;;;18.83;36.85;101148.28;4138193;28;20034;-55
2021/05/18 07:19:31;;;;;;;3.72;1.20;;;;;;;18.82;37.02;101139.13;4127513;28;20038;-55
2021/05/18 07:21:31;;;;;;;3.78;1.05;;;;;;;18.68;37.36;101141.56;4134433;28;20100;-54
2021/05/18 07:23:33;;;;;;;2.60;1.10;;;;;;;18.68;37.29;101140.75;4136680;28;20026;-54
2021/05/18 07:25:34;;;;;;;4.97;1.40;;;;;;;18.68;37.82;101141.56;4136986;28;20113;-54
2021/05/18 07:27:35;;;;;;;4.07;1.27;;;;;;;18.25;38.75;101151.00;4137255;28;20065;-51
2021/05/18 07:29:35;;;;;;;2.10;1.50;;;;;;;18.24;38.61;101160.41;4142914;28;20033;-50
2021/05/18 07:31:36;;;;;;;4.63;1.80;;;;;;;18.23;39.02;101144.88;4137445;28;20034;-51
2021/05/18 07:33:37;;;;;;;9.00;1.40;;;;;;;18.20;39.09;101151.81;4136401;28;20530;-52
2021/05/18 07:35:37;;;;;;;5.03;1.48;;;;;;;18.27;39.00;101157.13;4133973;28;20372;-54
2021/05/18 07:37:39;;;;;;;3.90;1.45;;;;;;;18.04;39.49;101153.63;4135455;28;20483;-53
2021/05/18 07:39:39;;;;;;;5.75;1.75;;;;;;;18.44;38.70;101157.78;4140556;28;20036;-55
2021/05/18 07:41:40;;;;;;;2.25;1.92;;;;;;;18.28;39.19;101164.34;4140338;28;20503;-54
2021/05/18 07:43:40;;;;;;;4.53;1.63;;;;;;;18.30;39.12;101159.34;4137488;28;20080;-53
2021/05/18 07:45:41;;;;;;;3.53;1.48;;;;;;;18.43;39.06;101156.16;4140515;28;20040;-47
2021/05/18 07:47:42;;;;;;;3.65;1.38;;;;;;;18.49;39.05;101160.63;4131973;28;20546;-48
2021/05/18 07:49:48;;;;;;;8.50;1.80;;;;;;;18.31;39.13;101150.81;4137170;28;20026;-56
2021/05/18 07:59:13;;;;;;;2.03;1.83;;;;;;;18.33;39.19;101167.16;4137736;28;20041;-50
2021/05/18 08:02:18;;;;;;;4.57;1.58;;;;;;;18.57;38.60;101155.66;4139712;28;20060;-53
2021/05/18 08:05:53;;;;;;;6.97;1.75;;;;;;;18.67;38.50;101155.69;4143194;28;20107;-51
2021/05/18 08:07:54;;;;;;;5.25;1.70;;;;;;;18.68;38.35;101155.44;4141750;28;20113;-52
2021/05/18 08:10:07;;;;;;;2.42;1.88;;;;;;;18.65;38.44;101149.59;4140550;28;20534;-49
2021/05/18 08:12:09;;;;;;;2.50;1.60;;;;;;;18.47;38.85;101164.75;4140716;28;20104;-51
2021/05/18 08:14:10;;;;;;;4.47;1.95;;;;;;;18.46;38.78;101169.47;4139056;28;20088;-49
2021/05/18 08:20:56;;;;;;;1.70;1.60;;;;;;;18.68;38.37;101171.25;4149654;28;20444;-46
2021/05/18 10:35:53;;;;;;;5.82;3.42;;;;;;;20.39;36.12;101200.97;4138312;28;20517;-49
2021/05/18 10:38:12;;;;;;;3.97;2.53;;;;;;;20.44;36.13;101210.16;4144934;28;20137;-49
2021/05/18 10:40:15;;;;;;;3.70;2.67;;;;;;;20.47;36.01;101215.16;4136953;28;20038;-57
2021/05/18 10:42:16;;;;;;;6.82;2.67;;;;;;;20.58;35.93;101210.44;4140906;28;20754;-54
2021/05/18 10:44:17;;;;;;;5.72;2.40;;;;;;;20.57;36.21;101216.25;4137601;28;20026;-56
2021/05/18 10:46:22;;;;;;;5.25;2.72;;;;;;;20.64;36.34;101217.66;4142444;28;20484;-49
2021/05/18 10:48:32;;;;;;;4.63;2.20;;;;;;;20.80;36.25;101223.16;4142926;28;20404;-48
2021/05/18 10:50:41;;;;;;;7.30;2.75;;;;;;;20.78;36.13;101220.66;4145923;28;20076;-55
2021/05/18 10:52:43;;;;;;;3.70;2.27;;;;;;;20.89;36.32;101226.22;4139903;28;20148;-55
2021/05/18 10:54:44;;;;;;;3.75;2.15;;;;;;;20.96;36.14;101223.94;4145498;28;20656;-57
2021/05/18 10:56:57;;;;;;;8.35;2.17;;;;;;;20.97;36.33;101228.41;4142081;28;20443;-55
2021/05/18 10:58:57;;;;;;;2.67;1.67;;;;;;;20.99;36.26;101224.22;4142550;28;20072;-55
2021/05/18 11:00:59;;;;;;;2.88;2.13;;;;;;;21.04;36.33;101226.16;4133707;28;20049;-54
2021/05/18 11:03:00;;;;;;;4.07;1.67;;;;;;;21.10;36.40;101221.38;4138928;28;20334;-53
2021/05/18 11:05:02;;;;;;;6.28;1.95;;;;;;;21.21;36.38;101228.59;4148479;28;20562;-55
2021/05/18 11:07:05;;;;;;;2.88;1.98;;;;;;;21.21;36.16;101231.38;4141710;28;20335;-52
2021/05/18 11:09:05;;;;;;;3.40;2.08;;;;;;;21.29;36.18;101232.75;4139649;28;20471;-53
2021/05/18 11:11:24;;;;;;;3.63;2.10;;;;;;;21.29;36.06;101236.38;4146781;28;20038;-54
2021/05/18 11:13:25;;;;;;;2.63;1.77;;;;;;;21.31;36.17;101236.06;4142320;28;20071;-50
2021/05/18 11:15:26;;;;;;;2.92;1.80;;;;;;;21.33;36.56;101229.09;4142765;28;20181;-49
2021/05/18 11:17:28;;;;;;;3.22;1.80;;;;;;;21.34;36.60;101227.16;4143503;28;20037;-52
2021/05/18 11:19:29;;;;;;;1.73;1.50;;;;;;;21.26;36.26;101214.63;4143709;28;20030;-54
2021/05/18 11:21:36;;;;;;;6.72;1.52;;;;;;;21.55;36.19;101239.00;4141883;28;20059;-46
2021/05/18 11:23:36;;;;;;;1.42;1.25;;;;;;;21.52;36.41;101234.03;4142544;28;20037;-50
2021/05/18 11:25:40;;;;;;;2.60;1.35;;;;;;;21.64;36.49;101240.06;4140801;28;20026;-49
2021/05/18 11:27:40;;;;;;;3.40;1.27;;;;;;;21.63;36.19;101234.78;4141026;28;20030;-52
2021/05/18 11:29:41;;;;;;;1.52;1.42;;;;;;;21.74;36.34;101241.94;4138397;28;20034;-53
2021/05/18 11:31:42;;;;;;;1.70;1.50;;;;;;;21.80;36.36;101257.50;4140587;28;20034;-51
2021/05/18 11:33:48;;;;;;;5.53;1.38;;;;;;;21.81;36.52;101259.19;4144417;28;20040;-51
2021/05/18 11:36:05;;;;;;;3.03;1.38;;;;;;;21.79;36.56;101260.59;4137434;28;20030;-51
2021/05/18 11:38:15;;;;;;;3.85;1.58;;;;;;;21.93;36.68;101256.00;4151678;28;20124;-52
2021/05/18 11:40:17;;;;;;;1.50;1.15;;;;;;;21.98;36.51;101263.53;4134722;28;20034;-51
2021/05/18 11:42:28;;;;;;;1.40;1.30;;;;;;;22.03;36.63;101260.72;4138453;28;20044;-48
2021/05/18 11:44:34;;;;;;;2.80;1.80;;;;;;;22.04;36.68;101266.00;4132819;28;20568;-51
2021/05/18 11:46:42;;;;;;;8.98;1.90;;;;;;;22.10;36.64;101269.56;4136333;28;20030;-49
2021/05/18 11:49:00;;;;;;;5.68;2.38;;;;;;;21.94;35.62;101265.22;4146830;28;20030;-47
2021/05/18 11:51:15;;;;;;;4.78;2.30;;;;;;;21.85;35.57;101271.41;4144288;28;20052;-49
2021/05/18 11:53:42;;;;;;;6.15;2.25;;;;;;;21.87;36.07;101274.75;4137689;28;20393;-50
2021/05/18 11:55:42;;;;;;;5.72;1.98;;;;;;;21.95;35.82;101267.72;4144479;28;20021;-54
2021/05/18 11:57:43;;;;;;;4.72;2.15;;;;;;;21.93;35.68;101281.09;4136650;28;20177;-60
2021/05/18 11:59:43;;;;;;;4.20;2.33;;;;;;;21.82;35.69;101285.91;4142490;28;20034;-52
2021/05/18 12:01:44;;;;;;;4.47;2.65;;;;;;;21.85;35.42;101284.50;4142864;28;20473;-48
2021/05/18 12:03:44;;;;;;;4.88;2.50;;;;;;;21.65;35.27;101277.09;4137262;28;20765;-50
2021/05/18 12:05:56;;;;;;;3.50;2.42;;;;;;;21.86;35.14;101286.19;4144080;28;20037;-50
2021/05/18 12:07:56;;;;;;;4.65;3.08;;;;;;;21.82;34.70;101280.34;4137511;28;20068;-49
2021/05/18 12:09:57;;;;;;;5.28;2.47;;;;;;;21.84;34.92;101282.81;4141121;28;20468;-52
2021/05/18 12:12:00;;;;;;;4.07;2.60;;;;;;;21.88;34.91;101287.53;4140701;28;20291;-51
2021/05/18 12:14:07;;;;;;;4.32;2.30;;;;;;;21.91;34.60;101281.38;4138460;28;20026;-48
2021/05/18 12:16:09;;;;;;;7.70;2.42;;;;;;;21.86;34.44;101283.41;4154918;28;20131;-46
2021/05/18 12:18:09;;;;;;;4.47;2.40;;;;;;;21.86;34.64;101281.44;4142084;28;20022;-49
2021/05/18 12:20:16;;;;;;;3.90;2.60;;;;;;;21.84;34.37;101288.41;4138429;28;20069;-49
2021/05/18 12:22:16;;;;;;;2.95;2.03;;;;;;;21.88;34.87;101286.72;4140227;28;20058;-47
2021/05/18 12:24:19;;;;;;;3.95;2.50;;;;;;;21.87;34.24;101296.19;4139206;28;20694;-53
2021/05/18 12:26:20;;;;;;;5.05;2.72;;;;;;;21.35;34.69;101292.88;4139550;28;20022;-56
2021/05/18 12:28:20;;;;;;;8.20;2.65;;;;;;;21.68;34.31;101287.69;4139461;28;20115;-48
2021/05/18 12:30:33;;;;;;;8.02;2.58;;;;;;;21.55;34.51;101292.75;4136157;28;20054;-53
2021/05/18 12:32:36;;;;;;;5.05;2.78;;;;;;;21.53;34.38;101291.38;4140019;28;20389;-53
2021/05/18 12:34:37;;;;;;;4.13;3.00;;;;;;;21.56;34.45;101288.00;4140924;28;20030;-50
2021/05/18 12:36:50;;;;;;;4.68;2.72;;;;;;;21.59;34.46;101295.78;4138003;28;20075;-52
2021/05/18 12:39:13;;;;;;;5.05;2.60;;;;;;;21.63;34.11;101298.84;4143193;28;20030;-48
2021/05/18 12:41:14;;;;;;;7.15;2.75;;;;;;;21.80;33.81;101288.16;4132774;28;20065;-51
2021/05/18 12:43:21;;;;;;;6.78;2.78;;;;;;;21.78;34.22;101297.91;4139440;28;20042;-51
2021/05/18 12:45:24;;;;;;;4.10;2.55;;;;;;;21.67;34.22;101302.72;4142736;28;20052;-50
2021/05/18 12:47:32;;;;;;;3.72;2.60;;;;;;;21.71;34.08;101293.50;4134043;28;20408;-53
2021/05/18 12:49:36;;;;;;;2.67;2.35;;;;;;;21.87;33.91;101299.81;4142108;28;20041;-50
2021/05/18 12:51:37;;;;;;;3.88;2.08;;;;;;;21.48;34.38;101288.63;4145411;28;20068;-50
2021/05/18 12:53:37;;;;;;;4.25;2.15;;;;;;;21.75;34.13;101299.34;4141538;28;20120;-48
2021/05/18 12:55:41;;;;;;;5.18;2.58;;;;;;;21.51;34.19;101310.34;4145822;28;20091;-52
2021/05/18 12:57:58;;;;;;;3.28;2.10;;;;;;;21.56;33.88;101285.22;4142305;28;20029;-48
2021/05/18 13:00:07;;;;;;;3.22;1.77;;;;;;;21.88;33.54;101301.47;4147439;28;20072;-52
2021/05/18 13:02:08;;;;;;;5.80;2.17;;;;;;;21.81;33.70;101309.34;4152274;28;20034;-50
2021/05/18 13:04:10;;;;;;;4.15;1.90;;;;;;;21.85;33.44;101313.19;4140665;28;20034;-51
2021/05/18 13:06:12;;;;;;;5.05;2.40;;;;;;;21.90;33.47;101303.97;4139872;28;20041;-50
2021/05/18 13:08:18;;;;;;;4.90;1.60;;;;;;;22.02;33.20;101307.25;4140596;28;20041;-52
2021/05/18 13:10:27;;;;;;;8.20;2.33;;;;;;;21.96;33.35;101304.78;4143369;28;20038;-52
2021/05/18 13:12:28;;;;;;;6.17;2.07;;;;;;;22.09;33.05;101310.56;4143422;28;20049;-54
2021/05/18 13:14:56;;;;;;;5.00;1.90;;;;;;;21.99;33.42;101304.22;4141976;28;20194;-46
2021/05/18 13:17:04;;;;;;;4.10;1.90;;;;;;;22.04;33.54;101321.75;4142841;28;20105;-49
2021/05/18 13:19:07;;;;;;;4.40;2.22;;;;;;;22.10;33.41;101305.81;4145515;28;20036;-54
2021/05/18 13:21:21;;;;;;;8.00;2.10;;;;;;;22.11;33.20;101315.03;4142002;28;20521;-49
2021/05/18 13:27:58;;;;;;;4.60;2.00;;;;;;;22.04;33.13;101312.56;4138500;28;20554;-48
2021/05/18 13:29:58;;;;;;;7.22;2.10;;;;;;;21.86;33.54;101314.06;4136721;28;20443;-51
2021/05/18 13:31:58;;;;;;;4.15;2.13;;;;;;;21.80;33.34;101312.41;4139378;28;20045;-49
2021/05/18 13:33:59;;;;;;;4.63;2.00;;;;;;;21.82;33.42;101318.53;4140480;28;20412;-46
2021/05/18 13:36:00;;;;;;;2.88;1.98;;;;;;;21.80;33.38;101304.88;4138076;28;20030;-49
2021/05/18 13:38:01;;;;;;;5.05;2.05;;;;;;;22.04;33.17;101301.41;4139877;28;20022;-50
2021/05/18 13:40:01;;;;;;;4.20;1.90;;;;;;;21.97;33.18;101293.34;4140513;28;20451;-49
2021/05/18 13:42:02;;;;;;;4.05;1.83;;;;;;;22.22;33.40;101311.03;4139950;28;20034;-49
2021/05/18 13:44:04;;;;;;;4.70;1.60;;;;;;;22.25;33.30;101318.81;4139929;28;20037;-48
2021/05/18 13:46:05;;;;;;;6.70;1.50;;;;;;;22.27;33.44;101310.97;4142448;28;20405;-49
2021/05/18 13:48:07;;;;;;;5.07;1.88;;;;;;;22.37;33.29;101315.63;4137678;28;20041;-50
2021/05/18 13:50:08;;;;;;;5.38;1.73;;;;;;;22.14;33.19;101308.88;4139442;28;20069;-58
2021/05/18 13:52:08;;;;;;;4.03;1.60;;;;;;;22.35;33.29;101310.34;4135526;28;20034;-49
2021/05/18 13:54:09;;;;;;;3.10;1.45;;;;;;;22.20;33.59;101305.75;4139005;28;20033;-51
2021/05/18 13:56:11;;;;;;;5.88;2.05;;;;;;;22.30;33.05;101323.53;4142215;28;20101;-51
2021/05/18 13:58:11;;;;;;;8.35;1.85;;;;;;;22.27;33.21;101317.41;4143925;28;20645;-47
2021/05/18 14:00:13;;;;;;;6.93;2.13;;;;;;;22.37;32.74;101310.06;4147187;28;20034;-50
2021/05/18 14:02:15;;;;;;;5.78;1.92;;;;;;;22.42;32.90;101324.81;4145975;28;20392;-53